Главная страница
METAR-TAF:

METAR-TAF

Аэропорты :

Aeroflex-Andover Airport

Andover, Нью-Джерси, США

широта: 41-00-32N, долгота: 074-44-12W, высота над уровнем моря: 177 м

Текущие метеонаблюдения

Эта сводка был подготовлена 11 минут назад, в 23:54 UTC
Штиль
Температура 20°C
Влажность 68%
Давление 1016 hPa

METAR: K12N 232354Z AUTO 00000KT 20/14 A3000 RMK AO1 SLP155 T02000144 10261 20200 53011

Время: 20:05 (00:05 UTC)


TAF: отсутствует

Метеонаблюдения и прогнозы для более 4000 аэропортов (сводки METAR и TAF).

Имеющиеся станции представлены на карте желтыми и красными точками.

Чтобы увидеть название станции, наведите на нее мышь.

Затем щелкните, чтобы увидеть метеонаблюдения и метеопрогнозы.

Управление картой: чтобы увеличить масштаб, щелкните зеленые кнопки с черным крестиком; чтобы уменьшить масштаб, щелкните зеленую кнопку с тире; для просмотра соседних карт щелкайте зеленые стрелки.


METAR-TAF: